createdAt,value
2023-03-05T00:01:37.352Z,97635.97
2023-03-05T00:04:09.286Z,97640.03
2023-03-05T00:06:38.717Z,97640.25
2023-03-05T00:09:07.321Z,97633.03
2023-03-05T00:11:36.202Z,97631.69
2023-03-05T00:14:06.204Z,97644.03
2023-03-05T00:16:34.797Z,97640.78
2023-03-05T00:19:03.907Z,97630.34
2023-03-05T00:21:33.842Z,97634.94
2023-03-05T00:24:07.004Z,97632.81
2023-03-05T00:26:37.214Z,97632.50
2023-03-05T00:29:05.482Z,97620.66
2023-03-05T00:31:35.988Z,97609.91
2023-03-05T00:34:06.315Z,97623.38
2023-03-05T00:36:34.666Z,97590.81
2023-03-05T00:39:04.912Z,97633.28
2023-03-05T00:41:33.194Z,97624.16
2023-03-05T00:44:01.606Z,97627.63
2023-03-05T00:46:30.249Z,97616.91
2023-03-05T00:48:58.432Z,97612.34
2023-03-05T00:51:27.769Z,97608.34
2023-03-05T00:53:56.575Z,97612.66
2023-03-05T00:56:26.086Z,97615.56
2023-03-05T00:58:54.410Z,97611.53
2023-03-05T01:01:23.011Z,97614.75
2023-03-05T01:03:51.387Z,97611.56
2023-03-05T01:06:19.549Z,97601.31
2023-03-05T01:08:48.173Z,97590.03
2023-03-05T01:11:16.349Z,97598.84
2023-03-05T01:13:46.280Z,97591.34
2023-03-05T01:16:14.929Z,97591.38
2023-03-05T01:18:43.744Z,97590.28
2023-03-05T01:21:12.022Z,97583.59
2023-03-05T01:23:41.392Z,97588.66
2023-03-05T01:26:11.421Z,97582.72
2023-03-05T01:28:40.163Z,97562.84
2023-03-05T01:31:12.046Z,97572.25
2023-03-05T01:33:40.684Z,97577.66
2023-03-05T01:36:13.913Z,97574.75
2023-03-05T01:38:43.111Z,97574.97
2023-03-05T01:41:12.379Z,97567.19
2023-03-05T01:43:40.919Z,97548.09
2023-03-05T01:46:38.057Z,97571.50
2023-03-05T01:49:13.494Z,97565.09
2023-03-05T01:51:47.545Z,97556.75
2023-03-05T01:54:18.604Z,97557.28
2023-03-05T01:56:50.523Z,97538.41
2023-03-05T01:59:19.747Z,97551.34
2023-03-05T02:01:54.761Z,97562.34
2023-03-05T02:04:28.787Z,97560.22
2023-03-05T02:06:57.849Z,97549.44
2023-03-05T02:09:28.770Z,97553.47
2023-03-05T02:11:58.818Z,97546.75
2023-03-05T02:14:28.273Z,97577.41
2023-03-05T02:16:58.142Z,97543.28
2023-03-05T02:19:27.063Z,97553.47
2023-03-05T02:21:56.979Z,97546.44
2023-03-05T02:24:37.659Z,97550.41
2023-03-05T02:27:07.380Z,97538.09
2023-03-05T02:29:39.410Z,97551.75
2023-03-05T02:32:08.927Z,97542.28
2023-03-05T02:34:38.025Z,97545.47
2023-03-05T02:37:09.506Z,97539.88
2023-03-05T02:39:38.395Z,97542.78
2023-03-05T02:42:07.082Z,97513.47
2023-03-05T02:44:35.430Z,97533.75
2023-03-05T02:47:04.329Z,97533.19
2023-03-05T02:49:33.228Z,97529.38
2023-03-05T02:52:02.107Z,97537.94
2023-03-05T02:54:31.866Z,97529.41
2023-03-05T02:57:01.413Z,97533.69
2023-03-05T02:59:29.700Z,97521.59
2023-03-05T03:01:58.210Z,97523.13
2023-03-05T03:04:27.635Z,97518.59
2023-03-05T03:06:55.857Z,97520.78
2023-03-05T03:09:24.467Z,97504.44
2023-03-05T03:11:55.409Z,97516.75
2023-03-05T03:14:23.745Z,97500.44
2023-03-05T03:16:52.792Z,97513.94
2023-03-05T03:19:21.258Z,97512.56
2023-03-05T03:21:50.639Z,97504.50
2023-03-05T03:24:19.477Z,97497.81
2023-03-05T03:26:47.697Z,97503.47
2023-03-05T03:29:18.349Z,97498.34
2023-03-05T03:31:47.417Z,97479.84
2023-03-05T03:34:17.645Z,97492.44
2023-03-05T03:36:47.628Z,97497.03
2023-03-05T03:39:17.237Z,97489.25
2023-03-05T03:41:49.050Z,97491.72
2023-03-05T03:44:19.441Z,97497.03
2023-03-05T03:46:50.022Z,97490.06
2023-03-05T03:49:20.514Z,97495.19
2023-03-05T03:51:51.264Z,97488.44
2023-03-05T03:54:20.521Z,97485.78
2023-03-05T03:56:49.069Z,97484.44
2023-03-05T03:59:19.447Z,97481.25
2023-03-05T04:01:47.889Z,97483.94
2023-03-05T04:04:16.442Z,97490.94
2023-03-05T04:06:45.716Z,97486.09
2023-03-05T04:09:13.837Z,97471.09
2023-03-05T04:11:42.108Z,97473.72
2023-03-05T04:14:10.155Z,97477.78
2023-03-05T04:16:39.844Z,97487.44
2023-03-05T04:19:07.774Z,97489.06
2023-03-05T04:21:36.337Z,97477.44
2023-03-05T04:24:04.712Z,97492.50
2023-03-05T04:26:32.989Z,97480.16
2023-03-05T04:29:01.744Z,97476.97
2023-03-05T04:31:30.769Z,97469.16
2023-03-05T04:34:01.048Z,97472.09
2023-03-05T04:36:29.634Z,97472.38
2023-03-05T04:38:58.010Z,97459.41
2023-03-05T04:41:26.415Z,97466.16
2023-03-05T04:43:54.986Z,97464.84
2023-03-05T04:46:23.389Z,97467.50
2023-03-05T04:48:52.224Z,97453.34
2023-03-05T04:51:22.308Z,97457.63
2023-03-05T04:53:51.077Z,97462.44
2023-03-05T04:56:19.580Z,97458.69
2023-03-05T04:58:48.982Z,97459.53
2023-03-05T05:01:17.854Z,97471.53
2023-03-05T05:03:46.446Z,97448.78
2023-03-05T05:06:15.579Z,97460.88
2023-03-05T05:08:45.468Z,97451.19
2023-03-05T05:11:16.352Z,97449.03
2023-03-05T05:13:44.645Z,97445.56
2023-03-05T05:16:12.893Z,97449.63
2023-03-05T05:18:41.774Z,97441.78
2023-03-05T05:21:11.241Z,97453.09
2023-03-05T05:23:40.222Z,97452.53
2023-03-05T05:26:10.901Z,97447.19
2023-03-05T05:28:39.733Z,97439.88
2023-03-05T05:31:09.653Z,97444.97
2023-03-05T05:33:39.083Z,97434.25
2023-03-05T05:36:10.129Z,97445.22
2023-03-05T05:38:41.036Z,97438.53
2023-03-05T05:41:12.893Z,97433.94
2023-03-05T05:43:42.605Z,97429.66
2023-03-05T05:46:14.068Z,97437.69
2023-03-05T05:48:43.996Z,97436.09
2023-03-05T05:51:14.973Z,97440.66
2023-03-05T05:53:44.494Z,97444.19
2023-03-05T05:56:16.903Z,97440.94
2023-03-05T05:58:49.090Z,97434.19
2023-03-05T06:01:21.134Z,97450.03
2023-03-05T06:03:50.038Z,97447.38
2023-03-05T06:06:20.630Z,97456.78
2023-03-05T06:08:49.592Z,97453.53
2023-03-05T06:11:20.602Z,97463.22
2023-03-05T06:13:49.654Z,97464.28
2023-03-05T06:16:20.660Z,97442.50
2023-03-05T06:18:49.273Z,97473.41
2023-03-05T06:21:21.173Z,97452.28
2023-03-05T06:23:50.870Z,97452.28
2023-03-05T06:26:23.674Z,97444.66
2023-03-05T06:28:52.994Z,97460.78
2023-03-05T06:31:26.221Z,97462.44
2023-03-05T06:33:56.051Z,97464.06
2023-03-05T06:36:26.960Z,97457.59
2023-03-05T06:38:56.770Z,97461.31
2023-03-05T06:41:29.147Z,97448.78
2023-03-05T06:43:58.716Z,97460.84
2023-03-05T06:46:29.791Z,97467.59
2023-03-05T06:48:59.506Z,97458.72
2023-03-05T06:51:29.232Z,97470.56
2023-03-05T06:54:01.287Z,97464.69
2023-03-05T06:56:31.242Z,97456.34
2023-03-05T06:59:00.260Z,97464.13
2023-03-05T07:01:29.410Z,97477.84
2023-03-05T07:04:00.520Z,97470.31
2023-03-05T07:06:29.499Z,97471.94
2023-03-05T07:08:58.290Z,97472.75
2023-03-05T07:11:27.215Z,97477.31
2023-03-05T07:13:57.584Z,97491.28
2023-03-05T07:16:27.709Z,97474.09
2023-03-05T07:18:57.895Z,97486.69
2023-03-05T07:21:28.363Z,97486.16
2023-03-05T07:23:57.740Z,97489.13
2023-03-05T07:26:27.180Z,97473.50
2023-03-05T07:28:58.128Z,97462.78
2023-03-05T07:31:32.366Z,97464.97
2023-03-05T07:34:02.071Z,97468.16
2023-03-05T07:36:32.588Z,97478.91
2023-03-05T07:39:00.859Z,97466.56
2023-03-05T07:41:29.215Z,97456.63
2023-03-05T07:43:59.979Z,97461.47
2023-03-05T07:46:31.146Z,97465.75
2023-03-05T07:49:00.523Z,97470.34
2023-03-05T07:51:29.711Z,97456.91
2023-03-05T07:53:59.868Z,97452.31
2023-03-05T07:56:32.300Z,97456.91
2023-03-05T07:59:03.200Z,97447.09
2023-03-05T08:01:32.920Z,97442.56
2023-03-05T08:04:01.326Z,97446.81
2023-03-05T08:06:29.863Z,97445.53
2023-03-05T08:09:00.128Z,97443.72
2023-03-05T08:11:29.439Z,97445.06
2023-03-05T08:13:59.546Z,97447.22
2023-03-05T08:16:29.827Z,97454.72
2023-03-05T08:18:59.475Z,97452.09
2023-03-05T08:21:30.341Z,97440.00
2023-03-05T08:23:59.378Z,97458.50
2023-03-05T08:26:29.660Z,97457.97
2023-03-05T08:28:58.835Z,97416.38
2023-03-05T08:31:30.433Z,97460.09
2023-03-05T08:34:01.233Z,97438.63
2023-03-05T08:36:30.919Z,97475.09
2023-03-05T08:39:00.757Z,97418.75
2023-03-05T08:41:29.943Z,97459.25
2023-03-05T08:43:58.722Z,97497.91
2023-03-05T08:46:33.558Z,97401.56
2023-03-05T08:49:02.245Z,97434.56
2023-03-05T08:51:30.839Z,97434.50
2023-03-05T08:54:02.418Z,97473.16
2023-03-05T08:56:31.777Z,97447.50
2023-03-05T08:59:00.880Z,97442.66
2023-03-05T09:01:32.697Z,97454.34
2023-03-05T09:04:02.670Z,97450.81
2023-03-05T09:06:32.712Z,97468.53
2023-03-05T09:09:01.416Z,97411.44
2023-03-05T09:11:29.678Z,97443.31
2023-03-05T09:13:58.659Z,97441.81
2023-03-05T09:16:27.626Z,97455.13
2023-03-05T09:18:57.607Z,97419.03
2023-03-05T09:21:26.492Z,97437.34
2023-03-05T09:23:59.697Z,97431.19
2023-03-05T09:26:29.072Z,97436.16
2023-03-05T09:28:57.690Z,97465.81
2023-03-05T09:31:26.336Z,97460.38
2023-03-05T09:33:54.910Z,97451.34
2023-03-05T09:36:26.682Z,97470.88
2023-03-05T09:38:56.372Z,97424.63
2023-03-05T09:41:34.632Z,97466.31
2023-03-05T09:44:13.110Z,97425.78
2023-03-05T09:46:52.996Z,97447.78
2023-03-05T09:49:32.805Z,97431.66
2023-03-05T09:52:09.123Z,97400.13
2023-03-05T09:54:42.773Z,97415.69
2023-03-05T09:57:18.678Z,97447.19
2023-03-05T09:59:52.291Z,97404.53
2023-03-05T10:02:27.312Z,97438.03
2023-03-05T10:05:02.455Z,97450.75
2023-03-05T10:07:35.209Z,97423.03
2023-03-05T10:10:07.239Z,97402.03
2023-03-05T10:12:43.075Z,97407.94
2023-03-05T10:15:16.709Z,97408.66
2023-03-05T10:18:08.894Z,97393.81
2023-03-05T10:20:56.086Z,97395.47
2023-03-05T10:23:46.877Z,97431.28
2023-03-05T10:26:41.626Z,97412.47
2023-03-05T10:29:24.739Z,97454.03
2023-03-05T10:32:04.702Z,97412.47
2023-03-05T10:34:52.377Z,97417.81
2023-03-05T10:37:38.663Z,97402.06
2023-03-05T10:40:20.652Z,97412.25
2023-03-05T10:42:58.405Z,97411.28
2023-03-05T10:45:33.423Z,97414.25
2023-03-05T10:48:09.539Z,97374.84
2023-03-05T10:50:43.159Z,97408.31
2023-03-05T10:53:21.639Z,97435.13
2023-03-05T10:55:56.258Z,97434.28
2023-03-05T10:58:26.406Z,97416.16
2023-03-05T11:01:05.975Z,97431.19
2023-03-05T11:03:53.054Z,97439.38
2023-03-05T11:06:36.741Z,97423.06
2023-03-05T11:09:24.777Z,97417.88
2023-03-05T11:12:13.934Z,97412.78
2023-03-05T11:14:46.847Z,97409.44
2023-03-05T11:17:29.035Z,97400.78
2023-03-05T11:19:58.546Z,97389.06
2023-03-05T11:22:27.573Z,97376.66
2023-03-05T11:25:18.832Z,97384.28
2023-03-05T11:27:54.672Z,97350.72
2023-03-05T11:30:27.857Z,97338.91
2023-03-05T11:33:11.339Z,97348.66
2023-03-05T11:35:43.712Z,97349.06
2023-03-05T11:38:19.216Z,97346.91
2023-03-05T11:40:49.247Z,97318.34
2023-03-05T11:43:21.384Z,97316.28
2023-03-05T11:45:53.948Z,97330.28
2023-03-05T11:48:27.292Z,97345.00
2023-03-05T11:50:59.558Z,97326.91
2023-03-05T11:53:29.819Z,97316.28
2023-03-05T11:56:05.191Z,97303.66
2023-03-05T11:58:40.902Z,97297.03
2023-03-05T12:01:20.608Z,97308.75
2023-03-05T12:03:51.395Z,97294.94
2023-03-05T12:06:27.244Z,97298.50
2023-03-05T12:08:59.271Z,97282.56
2023-03-05T12:11:31.399Z,97312.97
2023-03-05T12:14:07.261Z,97275.31
2023-03-05T12:16:41.588Z,97274.38
2023-03-05T12:19:35.780Z,97268.72
2023-03-05T12:22:06.615Z,97230.69
2023-03-05T12:24:41.596Z,97245.41
2023-03-05T12:27:16.922Z,97225.56
2023-03-05T12:29:55.066Z,97240.63
2023-03-05T12:33:02.705Z,97267.16
2023-03-05T12:35:41.309Z,97239.06
2023-03-05T12:38:39.249Z,97256.91
2023-03-05T12:41:39.818Z,97252.25
2023-03-05T12:44:24.348Z,97252.09
2023-03-05T12:47:23.962Z,97258.59
2023-03-05T12:49:58.386Z,97213.72
2023-03-05T12:52:29.914Z,97211.94
2023-03-05T12:55:19.505Z,97270.81
2023-03-05T12:57:49.860Z,97213.84
2023-03-05T13:00:27.597Z,97277.75
2023-03-05T13:03:02.029Z,97229.97
2023-03-05T13:05:34.632Z,97245.63
2023-03-05T13:08:16.200Z,97224.22
2023-03-05T13:10:52.636Z,97240.00
2023-03-05T13:13:22.437Z,97233.69
2023-03-05T13:15:53.041Z,97220.94
2023-03-05T13:18:26.570Z,97214.53
2023-03-05T13:21:04.992Z,97229.22
2023-03-05T13:23:35.715Z,97234.25
2023-03-05T13:26:13.921Z,97227.53
2023-03-05T13:28:44.399Z,97235.72
2023-03-05T13:31:16.655Z,97248.63
2023-03-05T13:33:54.470Z,97228.31
2023-03-05T13:36:25.823Z,97233.06
2023-03-05T13:38:55.894Z,97230.00
2023-03-05T13:41:27.758Z,97229.56
2023-03-05T13:43:58.666Z,97220.38
2023-03-05T13:46:31.290Z,97191.38
2023-03-05T13:49:20.337Z,97192.91
2023-03-05T13:51:51.375Z,97205.34
2023-03-05T13:54:21.501Z,97206.22
2023-03-05T13:56:55.402Z,97192.28
2023-03-05T13:59:26.224Z,97193.38
2023-03-05T14:01:55.366Z,97183.06
2023-03-05T14:04:28.355Z,97179.34
2023-03-05T14:07:00.887Z,97185.06
2023-03-05T14:09:31.708Z,97165.47
2023-03-05T14:12:04.083Z,97165.09
2023-03-05T14:14:36.857Z,97125.63
2023-03-05T14:17:32.275Z,97158.72
2023-03-05T14:20:24.949Z,97151.03
2023-03-05T14:22:57.016Z,97146.59
2023-03-05T14:25:37.000Z,97130.44
2023-03-05T14:28:07.675Z,97117.69
2023-03-05T14:30:37.796Z,97123.50
2023-03-05T14:33:07.347Z,97135.09
2023-03-05T14:35:40.701Z,97101.88
2023-03-05T14:38:21.411Z,97121.41
2023-03-05T14:40:50.883Z,97134.44
2023-03-05T14:43:19.557Z,97143.78
2023-03-05T14:45:48.241Z,97137.94
2023-03-05T14:48:20.178Z,97120.59
2023-03-05T14:50:56.448Z,97106.53
2023-03-05T14:53:29.786Z,97064.47
2023-03-05T14:55:59.505Z,97109.31
2023-03-05T14:58:32.946Z,97106.78
2023-03-05T15:01:01.999Z,97078.22
2023-03-05T15:03:30.935Z,97097.59
2023-03-05T15:06:01.773Z,97112.09
2023-03-05T15:08:32.906Z,97071.16
2023-03-05T15:11:04.726Z,97097.75
2023-03-05T15:13:33.194Z,97052.72
2023-03-05T15:16:02.412Z,97093.06
2023-03-05T15:18:32.402Z,97037.75
2023-03-05T15:21:02.821Z,97093.69
2023-03-05T15:23:37.292Z,97040.63
2023-03-05T15:26:10.600Z,97085.38
2023-03-05T15:28:41.212Z,97077.66
2023-03-05T15:31:11.467Z,97079.78
2023-03-05T15:33:42.024Z,97058.34
2023-03-05T15:36:12.216Z,97053.19
2023-03-05T15:38:41.768Z,97050.19
2023-03-05T15:41:10.660Z,97051.41
2023-03-05T15:43:39.449Z,97037.75
2023-03-05T15:46:08.881Z,97041.97
2023-03-05T15:48:37.258Z,97042.31
2023-03-05T15:51:09.407Z,97047.06
2023-03-05T15:53:39.218Z,97045.47
2023-03-05T15:56:08.325Z,97030.38
2023-03-05T15:58:37.107Z,97044.94
2023-03-05T16:01:06.980Z,97018.22
2023-03-05T16:03:36.089Z,97041.75
2023-03-05T16:06:06.189Z,97036.38
2023-03-05T16:08:36.922Z,97020.91
2023-03-05T16:11:07.897Z,97022.47
2023-03-05T16:13:36.870Z,97008.84
2023-03-05T16:16:08.847Z,97025.81
2023-03-05T16:18:43.454Z,97048.00
2023-03-05T16:21:14.459Z,97017.66
2023-03-05T16:23:43.235Z,97040.19
2023-03-05T16:26:13.090Z,97020.59
2023-03-05T16:28:41.754Z,97009.81
2023-03-05T16:31:10.116Z,97016.41
2023-03-05T16:33:38.728Z,97007.53
2023-03-05T16:36:22.983Z,96998.97
2023-03-05T16:38:54.026Z,96995.25
2023-03-05T16:41:25.321Z,97001.41
2023-03-05T16:43:56.398Z,97001.84
2023-03-05T16:46:26.113Z,96980.50
2023-03-05T16:48:55.136Z,96999.72
2023-03-05T16:51:23.765Z,96996.00
2023-03-05T16:53:54.181Z,96975.88
2023-03-05T16:56:24.904Z,96996.53
2023-03-05T16:58:57.106Z,96989.69
2023-03-05T17:01:25.960Z,96988.28
2023-03-05T17:03:54.547Z,96980.97
2023-03-05T17:06:27.560Z,96968.19
2023-03-05T17:08:56.211Z,96976.34
2023-03-05T17:11:26.251Z,96986.63
2023-03-05T17:13:55.335Z,96994.22
2023-03-05T17:16:24.177Z,96988.03
2023-03-05T17:18:52.756Z,96992.78
2023-03-05T17:21:24.020Z,97002.91
2023-03-05T17:23:52.305Z,96974.16
2023-03-05T17:26:21.564Z,96989.19
2023-03-05T17:28:53.622Z,96997.13
2023-03-05T17:31:22.754Z,96972.22
2023-03-05T17:33:52.028Z,96994.22
2023-03-05T17:36:21.961Z,96997.38
2023-03-05T17:38:51.457Z,96984.00
2023-03-05T17:41:21.212Z,97008.47
2023-03-05T17:43:51.762Z,96991.19
2023-03-05T17:46:19.866Z,96989.66
2023-03-05T17:48:48.261Z,97003.25
2023-03-05T17:51:17.499Z,96986.66
2023-03-05T17:53:46.582Z,97002.56
2023-03-05T17:56:20.962Z,97008.88
2023-03-05T17:58:51.195Z,97017.16
2023-03-05T18:01:28.335Z,96999.13
2023-03-05T18:03:57.160Z,97004.13
2023-03-05T18:06:26.240Z,96996.44
2023-03-05T18:08:55.229Z,97007.81
2023-03-05T18:11:23.704Z,96995.41
2023-03-05T18:13:53.297Z,96989.06
2023-03-05T18:16:23.916Z,96991.22
2023-03-05T18:18:52.672Z,96992.44
2023-03-05T18:21:22.117Z,96997.00
2023-03-05T18:23:51.742Z,96993.25
2023-03-05T18:26:20.133Z,96993.91
2023-03-05T18:28:48.586Z,96990.19
2023-03-05T18:31:18.866Z,96993.13
2023-03-05T18:33:47.244Z,96981.88
2023-03-05T18:36:15.988Z,96985.19
2023-03-05T18:38:45.177Z,96985.13
2023-03-05T18:41:20.652Z,96985.69
2023-03-05T18:43:51.227Z,96990.28
2023-03-05T18:46:21.520Z,96975.81
2023-03-05T18:48:50.189Z,96975.47
2023-03-05T18:51:22.180Z,96979.28
2023-03-05T18:53:52.094Z,96943.25
2023-03-05T18:56:20.387Z,96977.63
2023-03-05T18:58:49.464Z,96974.03
2023-03-05T19:01:18.573Z,96975.53
2023-03-05T19:03:50.022Z,96964.34
2023-03-05T19:06:18.796Z,96978.19
2023-03-05T19:08:51.411Z,96976.13
2023-03-05T19:11:21.718Z,96971.00
2023-03-05T19:13:51.412Z,96962.75
2023-03-05T19:16:22.149Z,96958.53
2023-03-05T19:19:04.219Z,96968.22
2023-03-05T19:21:33.688Z,96946.69
2023-03-05T19:24:02.154Z,96951.72
2023-03-05T19:26:30.668Z,96949.44
2023-03-05T19:28:59.742Z,96942.00
2023-03-05T19:31:28.298Z,96949.16
2023-03-05T19:33:58.213Z,96904.84
2023-03-05T19:36:26.790Z,96958.06
2023-03-05T19:38:55.512Z,96943.81
2023-03-05T19:41:24.123Z,96947.66
2023-03-05T19:43:53.083Z,96953.50
2023-03-05T19:46:21.653Z,96933.25
2023-03-05T19:48:50.143Z,96938.75
2023-03-05T19:51:23.886Z,96939.00
2023-03-05T19:53:52.649Z,96938.78
2023-03-05T19:56:21.309Z,96923.28
2023-03-05T19:58:50.633Z,96936.22
2023-03-05T20:01:21.433Z,96935.06
2023-03-05T20:03:52.073Z,96921.19
2023-03-05T20:06:22.299Z,96913.84
2023-03-05T20:08:50.875Z,96920.81
2023-03-05T20:11:20.656Z,96908.19
2023-03-05T20:13:49.818Z,96914.19
2023-03-05T20:16:20.561Z,96912.91
2023-03-05T20:18:52.945Z,96913.28
2023-03-05T20:21:25.459Z,96917.22
2023-03-05T20:23:55.362Z,96912.34
2023-03-05T20:26:26.544Z,96913.16
2023-03-05T20:28:56.417Z,96920.53
2023-03-05T20:31:28.131Z,96921.63
2023-03-05T20:33:57.410Z,96916.34
2023-03-05T20:36:27.877Z,96906.09
2023-03-05T20:38:56.833Z,96919.38
2023-03-05T20:41:26.054Z,96915.03
2023-03-05T20:43:54.852Z,96905.81
2023-03-05T20:46:26.005Z,96903.88
2023-03-05T20:48:58.333Z,96916.69
2023-03-05T20:51:30.330Z,96912.75
2023-03-05T20:54:03.111Z,96904.75
2023-03-05T20:56:33.578Z,96903.19
2023-03-05T20:59:05.971Z,96910.94
2023-03-05T21:01:35.893Z,96900.94
2023-03-05T21:04:06.026Z,96893.06
2023-03-05T21:06:37.020Z,96905.47
2023-03-05T21:09:06.894Z,96896.91
2023-03-05T21:11:35.979Z,96894.53
2023-03-05T21:14:04.420Z,96888.94
2023-03-05T21:16:33.536Z,96878.72
2023-03-05T21:19:01.884Z,96894.91
2023-03-05T21:21:30.333Z,96874.63
2023-03-05T21:24:00.212Z,96881.84
2023-03-05T21:26:28.582Z,96873.22
2023-03-05T21:28:56.980Z,96862.03
2023-03-05T21:31:25.843Z,96860.84
2023-03-05T21:33:54.207Z,96866.97
2023-03-05T21:36:22.581Z,96859.34
2023-03-05T21:38:51.629Z,96865.53
2023-03-05T21:41:23.026Z,96864.69
2023-03-05T21:43:51.806Z,96860.94
2023-03-05T21:46:20.048Z,96863.06
2023-03-05T21:48:48.678Z,96852.19
2023-03-05T21:51:22.739Z,96840.91
2023-03-05T21:53:51.706Z,96847.56
2023-03-05T21:56:25.477Z,96835.13
2023-03-05T21:58:55.248Z,96834.31
2023-03-05T22:01:23.525Z,96836.22
2023-03-05T22:03:52.145Z,96836.09
2023-03-05T22:06:21.717Z,96819.78
2023-03-05T22:08:49.998Z,96829.00
2023-03-05T22:11:22.100Z,96827.63
2023-03-05T22:13:50.215Z,96825.84
2023-03-05T22:16:23.834Z,96815.22
2023-03-05T22:18:53.528Z,96821.19
2023-03-05T22:21:23.766Z,96812.44
2023-03-05T22:23:53.469Z,96801.97
2023-03-05T22:26:23.693Z,96808.97
2023-03-05T22:28:52.324Z,96809.25
2023-03-05T22:31:24.532Z,96800.94
2023-03-05T22:33:53.389Z,96809.38
2023-03-05T22:36:21.839Z,96805.47
2023-03-05T22:38:50.731Z,96799.00
2023-03-05T22:41:21.429Z,96796.31
2023-03-05T22:43:52.207Z,96804.91
2023-03-05T22:46:22.846Z,96795.38
2023-03-05T22:48:51.346Z,96787.69
2023-03-05T22:51:21.262Z,96795.22
2023-03-05T22:53:49.830Z,96792.34
2023-03-05T22:56:20.685Z,96780.38
2023-03-05T22:58:51.182Z,96779.06
2023-03-05T23:01:22.374Z,96782.84
2023-03-05T23:03:56.040Z,96779.28
2023-03-05T23:06:25.262Z,96772.75
2023-03-05T23:08:53.781Z,96774.13
2023-03-05T23:11:23.276Z,96778.38
2023-03-05T23:13:53.069Z,96770.69
2023-03-05T23:16:21.318Z,96767.44
2023-03-05T23:18:50.195Z,96759.22
2023-03-05T23:21:18.577Z,96761.63
2023-03-05T23:23:46.773Z,96749.97
2023-03-05T23:26:15.501Z,96757.28
2023-03-05T23:28:43.797Z,96745.97
2023-03-05T23:31:13.640Z,96755.50
2023-03-05T23:33:42.721Z,96751.97
2023-03-05T23:36:11.716Z,96746.28
2023-03-05T23:38:40.606Z,96751.97
2023-03-05T23:41:09.967Z,96740.75
2023-03-05T23:43:38.169Z,96749.16
2023-03-05T23:46:13.351Z,96743.25
2023-03-05T23:48:41.798Z,96731.66
2023-03-05T23:51:10.653Z,96734.78
2023-03-05T23:53:39.484Z,96731.88
2023-03-05T23:56:11.138Z,96722.19
2023-03-05T23:58:40.269Z,96717.94
